sensor_id;sensor_type;location;lat;lon;timestamp;P1;durP1;ratioP1;P2;durP2;ratioP2
12869;SDS011;6503;48.572;13.460;2023-06-04T10:48:57;3.60;;;2.40;;
12869;SDS011;6503;48.572;13.460;2023-06-04T10:51:29;5.13;;;2.70;;
12869;SDS011;6503;48.572;13.460;2023-06-04T10:54:00;5.03;;;2.60;;
12869;SDS011;6503;48.572;13.460;2023-06-04T10:56:31;5.13;;;2.72;;
12869;SDS011;6503;48.572;13.460;2023-06-04T10:59:01;3.60;;;2.50;;
12869;SDS011;6503;48.572;13.460;2023-06-04T11:01:43;5.25;;;2.30;;
12869;SDS011;6503;48.572;13.460;2023-06-04T11:04:23;3.58;;;2.47;;
12869;SDS011;6503;48.572;13.460;2023-06-04T11:07:01;3.92;;;2.22;;
12869;SDS011;6503;48.572;13.460;2023-06-04T11:09:35;4.75;;;2.50;;
12869;SDS011;6503;48.572;13.460;2023-06-04T11:12:06;4.28;;;2.67;;
12869;SDS011;6503;48.572;13.460;2023-06-04T11:14:54;4.88;;;2.60;;
12869;SDS011;6503;48.572;13.460;2023-06-04T11:17:24;5.13;;;2.60;;
12869;SDS011;6503;48.572;13.460;2023-06-04T11:19:58;5.75;;;2.83;;
12869;SDS011;6503;48.572;13.460;2023-06-04T11:22:31;5.57;;;2.80;;
12869;SDS011;6503;48.572;13.460;2023-06-04T11:25:02;2.97;;;2.13;;
12869;SDS011;6503;48.572;13.460;2023-06-04T11:27:32;6.63;;;2.63;;
12869;SDS011;6503;48.572;13.460;2023-06-04T11:30:03;3.67;;;2.35;;
12869;SDS011;6503;48.572;13.460;2023-06-04T11:32:35;3.78;;;2.10;;
12869;SDS011;6503;48.572;13.460;2023-06-04T11:37:36;4.95;;;2.97;;
12869;SDS011;6503;48.572;13.460;2023-06-04T11:40:15;3.40;;;2.60;;
12869;SDS011;6503;48.572;13.460;2023-06-04T11:42:50;3.25;;;2.58;;
12869;SDS011;6503;48.572;13.460;2023-06-04T11:45:21;4.45;;;2.92;;
12869;SDS011;6503;48.572;13.460;2023-06-04T11:47:52;4.80;;;2.80;;
12869;SDS011;6503;48.572;13.460;2023-06-04T11:50:22;5.18;;;2.45;;
12869;SDS011;6503;48.572;13.460;2023-06-04T11:52:55;4.40;;;2.67;;
12869;SDS011;6503;48.572;13.460;2023-06-04T11:55:25;3.30;;;2.20;;
12869;SDS011;6503;48.572;13.460;2023-06-04T11:57:55;3.38;;;2.50;;
12869;SDS011;6503;48.572;13.460;2023-06-04T12:00:25;6.32;;;2.60;;
12869;SDS011;6503;48.572;13.460;2023-06-04T12:02:56;5.35;;;3.00;;
12869;SDS011;6503;48.572;13.460;2023-06-04T12:05:29;3.60;;;2.47;;
12869;SDS011;6503;48.572;13.460;2023-06-04T12:08:08;5.45;;;3.03;;
12869;SDS011;6503;48.572;13.460;2023-06-04T12:10:48;4.18;;;2.53;;
12869;SDS011;6503;48.572;13.460;2023-06-04T12:13:20;4.55;;;3.10;;
12869;SDS011;6503;48.572;13.460;2023-06-04T12:15:51;4.65;;;2.80;;
12869;SDS011;6503;48.572;13.460;2023-06-04T12:18:23;4.50;;;2.88;;
12869;SDS011;6503;48.572;13.460;2023-06-04T12:20:53;3.88;;;2.90;;
12869;SDS011;6503;48.572;13.460;2023-06-04T12:23:26;4.15;;;2.63;;
12869;SDS011;6503;48.572;13.460;2023-06-04T12:25:58;3.63;;;2.63;;
12869;SDS011;6503;48.572;13.460;2023-06-04T12:28:29;3.85;;;2.60;;
12869;SDS011;6503;48.572;13.460;2023-06-04T12:31:01;3.30;;;2.55;;
12869;SDS011;6503;48.572;13.460;2023-06-04T12:33:31;5.32;;;2.53;;
12869;SDS011;6503;48.572;13.460;2023-06-04T12:36:04;4.65;;;2.55;;
12869;SDS011;6503;48.572;13.460;2023-06-04T12:38:37;3.80;;;2.42;;
12869;SDS011;6503;48.572;13.460;2023-06-04T12:41:07;4.63;;;2.78;;
12869;SDS011;6503;48.572;13.460;2023-06-04T12:46:06;3.95;;;2.70;;
12869;SDS011;6503;48.572;13.460;2023-06-04T12:48:37;4.80;;;2.63;;
12869;SDS011;6503;48.572;13.460;2023-06-04T12:51:07;4.57;;;2.50;;
12869;SDS011;6503;48.572;13.460;2023-06-04T12:53:41;5.22;;;2.42;;
12869;SDS011;6503;48.572;13.460;2023-06-04T12:56:11;4.75;;;2.60;;
12869;SDS011;6503;48.572;13.460;2023-06-04T12:58:40;4.63;;;3.03;;
12869;SDS011;6503;48.572;13.460;2023-06-04T13:03:39;4.93;;;2.67;;
12869;SDS011;6503;48.572;13.460;2023-06-04T13:06:09;6.95;;;2.60;;
12869;SDS011;6503;48.572;13.460;2023-06-04T13:11:09;4.38;;;2.60;;
12869;SDS011;6503;48.572;13.460;2023-06-04T13:13:41;4.47;;;2.40;;
12869;SDS011;6503;48.572;13.460;2023-06-04T13:16:11;3.90;;;2.70;;
12869;SDS011;6503;48.572;13.460;2023-06-04T13:18:40;4.93;;;2.53;;
12869;SDS011;6503;48.572;13.460;2023-06-04T13:23:39;4.00;;;2.13;;
12869;SDS011;6503;48.572;13.460;2023-06-04T13:26:15;4.10;;;2.63;;
12869;SDS011;6503;48.572;13.460;2023-06-04T13:28:45;3.88;;;2.50;;
12869;SDS011;6503;48.572;13.460;2023-06-04T13:31:15;4.15;;;3.13;;
12869;SDS011;6503;48.572;13.460;2023-06-04T13:33:45;4.07;;;2.45;;
12869;SDS011;6503;48.572;13.460;2023-06-04T13:36:14;4.00;;;2.70;;
12869;SDS011;6503;48.572;13.460;2023-06-04T13:38:44;3.08;;;2.60;;
12869;SDS011;6503;48.572;13.460;2023-06-04T13:41:17;4.85;;;2.80;;
12869;SDS011;6503;48.572;13.460;2023-06-04T13:43:47;3.70;;;2.60;;
12869;SDS011;6503;48.572;13.460;2023-06-04T13:46:17;5.88;;;2.80;;
12869;SDS011;6503;48.572;13.460;2023-06-04T13:48:47;4.47;;;2.80;;
12869;SDS011;6503;48.572;13.460;2023-06-04T13:51:18;5.50;;;2.40;;
12869;SDS011;6503;48.572;13.460;2023-06-04T13:53:48;5.55;;;2.83;;
12869;SDS011;6503;48.572;13.460;2023-06-04T13:56:21;5.10;;;2.38;;
12869;SDS011;6503;48.572;13.460;2023-06-04T13:58:52;4.38;;;2.60;;
12869;SDS011;6503;48.572;13.460;2023-06-04T14:01:22;4.57;;;2.35;;
12869;SDS011;6503;48.572;13.460;2023-06-04T14:03:52;5.68;;;3.00;;
12869;SDS011;6503;48.572;13.460;2023-06-04T14:06:21;3.92;;;2.70;;
12869;SDS011;6503;48.572;13.460;2023-06-04T14:08:52;3.63;;;2.45;;
12869;SDS011;6503;48.572;13.460;2023-06-04T14:11:25;4.40;;;2.55;;
12869;SDS011;6503;48.572;13.460;2023-06-04T14:13:54;3.70;;;2.47;;
12869;SDS011;6503;48.572;13.460;2023-06-04T14:16:25;4.22;;;2.50;;
12869;SDS011;6503;48.572;13.460;2023-06-04T14:18:55;4.93;;;2.97;;
12869;SDS011;6503;48.572;13.460;2023-06-04T14:21:24;4.97;;;2.72;;
12869;SDS011;6503;48.572;13.460;2023-06-04T14:23:54;5.50;;;3.50;;
12869;SDS011;6503;48.572;13.460;2023-06-04T14:26:25;6.53;;;2.85;;
12869;SDS011;6503;48.572;13.460;2023-06-04T14:28:57;3.83;;;2.60;;
12869;SDS011;6503;48.572;13.460;2023-06-04T14:31:28;2.95;;;2.65;;
12869;SDS011;6503;48.572;13.460;2023-06-04T14:33:59;4.78;;;2.47;;
12869;SDS011;6503;48.572;13.460;2023-06-04T14:36:30;4.68;;;2.58;;
12869;SDS011;6503;48.572;13.460;2023-06-04T14:39:02;5.30;;;2.72;;
12869;SDS011;6503;48.572;13.460;2023-06-04T14:41:34;12.45;;;3.72;;
12869;SDS011;6503;48.572;13.460;2023-06-04T14:44:04;4.28;;;2.67;;
12869;SDS011;6503;48.572;13.460;2023-06-04T14:46:33;3.47;;;2.80;;
12869;SDS011;6503;48.572;13.460;2023-06-04T14:49:02;3.13;;;2.80;;
12869;SDS011;6503;48.572;13.460;2023-06-04T14:51:31;5.70;;;2.65;;
12869;SDS011;6503;48.572;13.460;2023-06-04T14:54:00;4.53;;;3.10;;
12869;SDS011;6503;48.572;13.460;2023-06-04T14:56:30;6.18;;;2.80;;
12869;SDS011;6503;48.572;13.460;2023-06-04T14:59:02;4.75;;;2.92;;
12869;SDS011;6503;48.572;13.460;2023-06-04T15:01:38;3.42;;;2.63;;
12869;SDS011;6503;48.572;13.460;2023-06-04T15:04:08;4.00;;;2.90;;
12869;SDS011;6503;48.572;13.460;2023-06-04T15:06:39;4.00;;;2.70;;
12869;SDS011;6503;48.572;13.460;2023-06-04T15:09:08;4.13;;;2.58;;
12869;SDS011;6503;48.572;13.460;2023-06-04T15:11:39;4.70;;;3.10;;
12869;SDS011;6503;48.572;13.460;2023-06-04T15:14:11;3.20;;;2.80;;
12869;SDS011;6503;48.572;13.460;2023-06-04T15:16:41;3.75;;;2.75;;
12869;SDS011;6503;48.572;13.460;2023-06-04T15:19:11;5.22;;;3.20;;
12869;SDS011;6503;48.572;13.460;2023-06-04T15:21:41;4.65;;;2.95;;
12869;SDS011;6503;48.572;13.460;2023-06-04T15:24:11;8.30;;;4.05;;
12869;SDS011;6503;48.572;13.460;2023-06-04T15:26:41;5.15;;;2.90;;
12869;SDS011;6503;48.572;13.460;2023-06-04T15:29:13;4.15;;;3.03;;
12869;SDS011;6503;48.572;13.460;2023-06-04T15:31:43;5.78;;;2.97;;
12869;SDS011;6503;48.572;13.460;2023-06-04T15:36:42;5.93;;;3.20;;
12869;SDS011;6503;48.572;13.460;2023-06-04T15:39:12;5.88;;;2.75;;
12869;SDS011;6503;48.572;13.460;2023-06-04T15:41:42;4.60;;;3.00;;
12869;SDS011;6503;48.572;13.460;2023-06-04T15:44:14;4.35;;;2.88;;
12869;SDS011;6503;48.572;13.460;2023-06-04T15:46:44;5.55;;;3.25;;
12869;SDS011;6503;48.572;13.460;2023-06-04T15:49:15;3.88;;;2.65;;
12869;SDS011;6503;48.572;13.460;2023-06-04T15:51:45;4.45;;;3.10;;
12869;SDS011;6503;48.572;13.460;2023-06-04T15:54:15;6.30;;;3.15;;
12869;SDS011;6503;48.572;13.460;2023-06-04T15:59:17;4.30;;;3.33;;
12869;SDS011;6503;48.572;13.460;2023-06-04T16:01:47;8.40;;;3.30;;
12869;SDS011;6503;48.572;13.460;2023-06-04T16:04:16;4.95;;;2.92;;
12869;SDS011;6503;48.572;13.460;2023-06-04T16:06:46;4.47;;;2.88;;
12869;SDS011;6503;48.572;13.460;2023-06-04T16:09:15;5.25;;;2.75;;
12869;SDS011;6503;48.572;13.460;2023-06-04T16:11:45;3.70;;;2.80;;
12869;SDS011;6503;48.572;13.460;2023-06-04T16:14:17;4.47;;;2.90;;
12869;SDS011;6503;48.572;13.460;2023-06-04T16:16:46;4.13;;;2.92;;
12869;SDS011;6503;48.572;13.460;2023-06-04T16:19:16;6.05;;;3.17;;
12869;SDS011;6503;48.572;13.460;2023-06-04T16:21:46;6.45;;;3.25;;
12869;SDS011;6503;48.572;13.460;2023-06-04T16:24:16;5.07;;;3.20;;
12869;SDS011;6503;48.572;13.460;2023-06-04T16:26:46;5.28;;;3.20;;
12869;SDS011;6503;48.572;13.460;2023-06-04T16:29:18;5.63;;;3.05;;
12869;SDS011;6503;48.572;13.460;2023-06-04T16:31:48;4.68;;;3.53;;
12869;SDS011;6503;48.572;13.460;2023-06-04T16:34:17;5.95;;;2.95;;
12869;SDS011;6503;48.572;13.460;2023-06-04T16:36:46;4.88;;;3.20;;
12869;SDS011;6503;48.572;13.460;2023-06-04T16:39:17;4.55;;;3.10;;
12869;SDS011;6503;48.572;13.460;2023-06-04T16:41:47;4.32;;;3.65;;
12869;SDS011;6503;48.572;13.460;2023-06-04T16:44:21;6.82;;;3.78;;
12869;SDS011;6503;48.572;13.460;2023-06-04T16:46:50;7.13;;;3.80;;
12869;SDS011;6503;48.572;13.460;2023-06-04T16:49:25;7.00;;;3.75;;
12869;SDS011;6503;48.572;13.460;2023-06-04T16:52:00;4.68;;;3.22;;
12869;SDS011;6503;48.572;13.460;2023-06-04T16:54:30;7.15;;;3.63;;
12869;SDS011;6503;48.572;13.460;2023-06-04T16:57:01;6.07;;;3.42;;
12869;SDS011;6503;48.572;13.460;2023-06-04T16:59:33;5.50;;;3.60;;
12869;SDS011;6503;48.572;13.460;2023-06-04T17:02:02;4.60;;;3.20;;
12869;SDS011;6503;48.572;13.460;2023-06-04T17:04:32;4.70;;;3.20;;
12869;SDS011;6503;48.572;13.460;2023-06-04T17:07:02;6.28;;;2.90;;
12869;SDS011;6503;48.572;13.460;2023-06-04T17:09:31;6.57;;;3.55;;
12869;SDS011;6503;48.572;13.460;2023-06-04T17:12:06;7.47;;;3.33;;
12869;SDS011;6503;48.572;13.460;2023-06-04T17:14:39;3.80;;;3.40;;
12869;SDS011;6503;48.572;13.460;2023-06-04T17:17:08;5.68;;;3.42;;
12869;SDS011;6503;48.572;13.460;2023-06-04T17:19:38;4.95;;;3.33;;
12869;SDS011;6503;48.572;13.460;2023-06-04T17:22:10;6.28;;;4.15;;
12869;SDS011;6503;48.572;13.460;2023-06-04T17:24:39;3.90;;;3.45;;
12869;SDS011;6503;48.572;13.460;2023-06-04T17:27:09;9.00;;;3.42;;
12869;SDS011;6503;48.572;13.460;2023-06-04T17:29:41;5.47;;;3.60;;
12869;SDS011;6503;48.572;13.460;2023-06-04T17:32:10;4.18;;;3.47;;
12869;SDS011;6503;48.572;13.460;2023-06-04T17:34:40;7.43;;;3.97;;
12869;SDS011;6503;48.572;13.460;2023-06-04T17:37:10;5.43;;;3.85;;
12869;SDS011;6503;48.572;13.460;2023-06-04T17:39:43;4.90;;;3.30;;
12869;SDS011;6503;48.572;13.460;2023-06-04T17:42:13;6.32;;;5.13;;
12869;SDS011;6503;48.572;13.460;2023-06-04T17:44:45;5.07;;;3.58;;
12869;SDS011;6503;48.572;13.460;2023-06-04T17:47:16;5.45;;;3.42;;
12869;SDS011;6503;48.572;13.460;2023-06-04T17:49:47;6.75;;;4.03;;
12869;SDS011;6503;48.572;13.460;2023-06-04T17:52:17;4.88;;;3.85;;
12869;SDS011;6503;48.572;13.460;2023-06-04T17:54:46;5.60;;;3.92;;
12869;SDS011;6503;48.572;13.460;2023-06-04T17:59:47;5.47;;;3.50;;
12869;SDS011;6503;48.572;13.460;2023-06-04T18:02:16;5.72;;;3.60;;
12869;SDS011;6503;48.572;13.460;2023-06-04T18:04:46;6.90;;;4.25;;
12869;SDS011;6503;48.572;13.460;2023-06-04T18:07:16;5.95;;;4.10;;
12869;SDS011;6503;48.572;13.460;2023-06-04T18:12:14;5.63;;;4.45;;
12869;SDS011;6503;48.572;13.460;2023-06-04T18:14:43;5.53;;;3.75;;
12869;SDS011;6503;48.572;13.460;2023-06-04T18:17:15;7.85;;;3.75;;
12869;SDS011;6503;48.572;13.460;2023-06-04T18:19:45;6.05;;;3.83;;
12869;SDS011;6503;48.572;13.460;2023-06-04T18:22:14;7.50;;;3.90;;
12869;SDS011;6503;48.572;13.460;2023-06-04T18:24:44;6.10;;;3.40;;
12869;SDS011;6503;48.572;13.460;2023-06-04T18:27:13;7.70;;;6.40;;
12869;SDS011;6503;48.572;13.460;2023-06-04T18:29:43;5.40;;;3.88;;
12869;SDS011;6503;48.572;13.460;2023-06-04T18:32:17;5.00;;;3.38;;
12869;SDS011;6503;48.572;13.460;2023-06-04T18:34:46;4.43;;;3.78;;
12869;SDS011;6503;48.572;13.460;2023-06-04T18:37:16;6.68;;;3.97;;
12869;SDS011;6503;48.572;13.460;2023-06-04T18:42:14;5.47;;;3.70;;
12869;SDS011;6503;48.572;13.460;2023-06-04T18:44:44;5.00;;;3.60;;
12869;SDS011;6503;48.572;13.460;2023-06-04T18:47:14;6.85;;;3.83;;
12869;SDS011;6503;48.572;13.460;2023-06-04T18:49:45;8.15;;;3.85;;
12869;SDS011;6503;48.572;13.460;2023-06-04T18:52:14;5.63;;;4.28;;
12869;SDS011;6503;48.572;13.460;2023-06-04T18:54:44;5.20;;;3.78;;
12869;SDS011;6503;48.572;13.460;2023-06-04T18:57:13;5.88;;;3.40;;
12869;SDS011;6503;48.572;13.460;2023-06-04T18:59:43;5.18;;;3.63;;
12869;SDS011;6503;48.572;13.460;2023-06-04T19:02:12;6.22;;;3.72;;
12869;SDS011;6503;48.572;13.460;2023-06-04T19:04:44;5.20;;;3.80;;
12869;SDS011;6503;48.572;13.460;2023-06-04T19:07:16;5.72;;;4.13;;
12869;SDS011;6503;48.572;13.460;2023-06-04T19:09:46;7.45;;;4.07;;
12869;SDS011;6503;48.572;13.460;2023-06-04T19:12:15;4.95;;;4.20;;
12869;SDS011;6503;48.572;13.460;2023-06-04T19:14:44;8.80;;;4.40;;
12869;SDS011;6503;48.572;13.460;2023-06-04T19:17:16;6.68;;;4.05;;
12869;SDS011;6503;48.572;13.460;2023-06-04T19:19:46;5.78;;;4.28;;
12869;SDS011;6503;48.572;13.460;2023-06-04T19:22:17;5.65;;;4.32;;
12869;SDS011;6503;48.572;13.460;2023-06-04T19:24:47;7.05;;;3.88;;
12869;SDS011;6503;48.572;13.460;2023-06-04T19:27:17;7.60;;;4.05;;
12869;SDS011;6503;48.572;13.460;2023-06-04T19:29:46;10.88;;;4.35;;
12869;SDS011;6503;48.572;13.460;2023-06-04T19:32:15;4.43;;;3.97;;
12869;SDS011;6503;48.572;13.460;2023-06-04T19:37:20;5.80;;;3.83;;
12869;SDS011;6503;48.572;13.460;2023-06-04T19:39:49;6.38;;;4.38;;
12869;SDS011;6503;48.572;13.460;2023-06-04T19:42:19;6.57;;;4.22;;
12869;SDS011;6503;48.572;13.460;2023-06-04T19:44:49;7.53;;;3.97;;
12869;SDS011;6503;48.572;13.460;2023-06-04T19:49:47;6.03;;;4.40;;
12869;SDS011;6503;48.572;13.460;2023-06-04T19:52:17;6.05;;;3.90;;
12869;SDS011;6503;48.572;13.460;2023-06-04T19:57:17;11.47;;;4.30;;
12869;SDS011;6503;48.572;13.460;2023-06-04T19:59:47;6.50;;;3.90;;
12869;SDS011;6503;48.572;13.460;2023-06-04T20:02:16;5.03;;;3.80;;
12869;SDS011;6503;48.572;13.460;2023-06-04T20:04:46;5.70;;;3.97;;
12869;SDS011;6503;48.572;13.460;2023-06-04T20:07:18;6.28;;;4.25;;
12869;SDS011;6503;48.572;13.460;2023-06-04T20:09:47;5.43;;;4.35;;
12869;SDS011;6503;48.572;13.460;2023-06-04T20:12:18;7.40;;;4.22;;
12869;SDS011;6503;48.572;13.460;2023-06-04T20:14:48;5.93;;;3.90;;
12869;SDS011;6503;48.572;13.460;2023-06-04T20:17:18;7.25;;;4.38;;
12869;SDS011;6503;48.572;13.460;2023-06-04T20:22:17;5.80;;;4.00;;
12869;SDS011;6503;48.572;13.460;2023-06-04T20:24:46;7.03;;;4.28;;
12869;SDS011;6503;48.572;13.460;2023-06-04T20:27:16;8.18;;;4.50;;
12869;SDS011;6503;48.572;13.460;2023-06-04T20:29:47;6.78;;;4.32;;
12869;SDS011;6503;48.572;13.460;2023-06-04T20:32:18;6.50;;;4.30;;
12869;SDS011;6503;48.572;13.460;2023-06-04T20:34:49;6.10;;;4.00;;
12869;SDS011;6503;48.572;13.460;2023-06-04T20:37:25;5.32;;;4.10;;
12869;SDS011;6503;48.572;13.460;2023-06-04T20:39:54;9.45;;;4.60;;
12869;SDS011;6503;48.572;13.460;2023-06-04T20:42:24;6.15;;;4.30;;
12869;SDS011;6503;48.572;13.460;2023-06-04T20:44:55;7.35;;;4.43;;
12869;SDS011;6503;48.572;13.460;2023-06-04T20:47:25;5.63;;;3.72;;
12869;SDS011;6503;48.572;13.460;2023-06-04T20:49:54;5.57;;;4.28;;
12869;SDS011;6503;48.572;13.460;2023-06-04T20:52:23;7.35;;;4.55;;
12869;SDS011;6503;48.572;13.460;2023-06-04T20:54:53;5.93;;;4.35;;
12869;SDS011;6503;48.572;13.460;2023-06-04T20:57:23;6.57;;;4.22;;
12869;SDS011;6503;48.572;13.460;2023-06-04T20:59:52;6.45;;;4.70;;
12869;SDS011;6503;48.572;13.460;2023-06-04T21:02:23;6.35;;;4.47;;
12869;SDS011;6503;48.572;13.460;2023-06-04T21:04:53;6.28;;;4.57;;
12869;SDS011;6503;48.572;13.460;2023-06-04T21:07:22;5.22;;;4.47;;
12869;SDS011;6503;48.572;13.460;2023-06-04T21:09:51;8.35;;;4.40;;
12869;SDS011;6503;48.572;13.460;2023-06-04T21:12:22;7.63;;;4.60;;
12869;SDS011;6503;48.572;13.460;2023-06-04T21:14:52;6.97;;;4.30;;
12869;SDS011;6503;48.572;13.460;2023-06-04T21:17:21;5.68;;;3.92;;
12869;SDS011;6503;48.572;13.460;2023-06-04T21:19:52;5.70;;;4.47;;
12869;SDS011;6503;48.572;13.460;2023-06-04T21:22:21;8.55;;;4.38;;
12869;SDS011;6503;48.572;13.460;2023-06-04T21:24:51;5.88;;;4.32;;
12869;SDS011;6503;48.572;13.460;2023-06-04T21:27:20;7.60;;;4.38;;
12869;SDS011;6503;48.572;13.460;2023-06-04T21:29:49;4.82;;;4.30;;
12869;SDS011;6503;48.572;13.460;2023-06-04T21:32:19;6.35;;;4.68;;
12869;SDS011;6503;48.572;13.460;2023-06-04T21:34:48;6.85;;;4.85;;
12869;SDS011;6503;48.572;13.460;2023-06-04T21:37:19;7.38;;;4.72;;
12869;SDS011;6503;48.572;13.460;2023-06-04T21:39:49;6.25;;;4.50;;
12869;SDS011;6503;48.572;13.460;2023-06-04T21:42:20;6.88;;;4.85;;
12869;SDS011;6503;48.572;13.460;2023-06-04T21:44:50;5.88;;;4.97;;
12869;SDS011;6503;48.572;13.460;2023-06-04T21:47:19;8.65;;;4.65;;
12869;SDS011;6503;48.572;13.460;2023-06-04T21:49:49;5.97;;;4.35;;
12869;SDS011;6503;48.572;13.460;2023-06-04T21:52:20;5.55;;;4.90;;
12869;SDS011;6503;48.572;13.460;2023-06-04T21:54:50;6.50;;;5.28;;
12869;SDS011;6503;48.572;13.460;2023-06-04T21:57:22;7.00;;;5.18;;
12869;SDS011;6503;48.572;13.460;2023-06-04T21:59:51;6.72;;;5.13;;
12869;SDS011;6503;48.572;13.460;2023-06-04T22:02:21;7.20;;;5.18;;
12869;SDS011;6503;48.572;13.460;2023-06-04T22:04:51;6.45;;;4.97;;
12869;SDS011;6503;48.572;13.460;2023-06-04T22:07:22;7.65;;;4.55;;
12869;SDS011;6503;48.572;13.460;2023-06-04T22:09:52;7.97;;;4.68;;
12869;SDS011;6503;48.572;13.460;2023-06-04T22:14:53;7.65;;;4.68;;
12869;SDS011;6503;48.572;13.460;2023-06-04T22:17:23;6.88;;;4.57;;
12869;SDS011;6503;48.572;13.460;2023-06-04T22:19:52;7.15;;;4.88;;
12869;SDS011;6503;48.572;13.460;2023-06-04T22:22:24;8.13;;;5.20;;
12869;SDS011;6503;48.572;13.460;2023-06-04T22:24:53;9.35;;;5.30;;
12869;SDS011;6503;48.572;13.460;2023-06-04T22:27:22;6.97;;;4.75;;
12869;SDS011;6503;48.572;13.460;2023-06-04T22:29:52;11.32;;;4.85;;
12869;SDS011;6503;48.572;13.460;2023-06-04T22:32:22;5.68;;;4.38;;
12869;SDS011;6503;48.572;13.460;2023-06-04T22:37:21;6.60;;;4.90;;
12869;SDS011;6503;48.572;13.460;2023-06-04T22:39:52;6.65;;;4.57;;
12869;SDS011;6503;48.572;13.460;2023-06-04T22:42:25;7.72;;;5.15;;
12869;SDS011;6503;48.572;13.460;2023-06-04T22:44:58;7.97;;;5.00;;
12869;SDS011;6503;48.572;13.460;2023-06-04T22:47:28;7.85;;;5.35;;
12869;SDS011;6503;48.572;13.460;2023-06-04T22:49:57;5.78;;;5.03;;
12869;SDS011;6503;48.572;13.460;2023-06-04T22:52:28;6.28;;;5.00;;
12869;SDS011;6503;48.572;13.460;2023-06-04T22:54:59;7.70;;;5.38;;
12869;SDS011;6503;48.572;13.460;2023-06-04T22:57:30;6.57;;;5.38;;
12869;SDS011;6503;48.572;13.460;2023-06-04T22:59:59;6.78;;;5.30;;
12869;SDS011;6503;48.572;13.460;2023-06-04T23:02:29;7.55;;;5.68;;
12869;SDS011;6503;48.572;13.460;2023-06-04T23:04:58;8.43;;;5.90;;
12869;SDS011;6503;48.572;13.460;2023-06-04T23:07:28;6.10;;;5.45;;
12869;SDS011;6503;48.572;13.460;2023-06-04T23:10:00;5.85;;;5.22;;
12869;SDS011;6503;48.572;13.460;2023-06-04T23:12:30;7.78;;;6.00;;
12869;SDS011;6503;48.572;13.460;2023-06-04T23:15:00;8.95;;;6.10;;
12869;SDS011;6503;48.572;13.460;2023-06-04T23:17:29;9.13;;;5.55;;
12869;SDS011;6503;48.572;13.460;2023-06-04T23:19:58;7.55;;;5.53;;
12869;SDS011;6503;48.572;13.460;2023-06-04T23:22:29;6.20;;;5.55;;
12869;SDS011;6503;48.572;13.460;2023-06-04T23:25:01;6.72;;;5.93;;
12869;SDS011;6503;48.572;13.460;2023-06-04T23:27:30;8.05;;;5.82;;
12869;SDS011;6503;48.572;13.460;2023-06-04T23:30:00;8.00;;;6.15;;
12869;SDS011;6503;48.572;13.460;2023-06-04T23:32:29;6.93;;;5.47;;
12869;SDS011;6503;48.572;13.460;2023-06-04T23:34:59;8.30;;;5.95;;
12869;SDS011;6503;48.572;13.460;2023-06-04T23:37:29;9.48;;;5.53;;
12869;SDS011;6503;48.572;13.460;2023-06-04T23:39:58;8.50;;;5.63;;
12869;SDS011;6503;48.572;13.460;2023-06-04T23:42:29;7.30;;;5.43;;
12869;SDS011;6503;48.572;13.460;2023-06-04T23:44:58;7.78;;;5.65;;
12869;SDS011;6503;48.572;13.460;2023-06-04T23:47:27;6.18;;;5.20;;
12869;SDS011;6503;48.572;13.460;2023-06-04T23:49:57;6.72;;;5.20;;
12869;SDS011;6503;48.572;13.460;2023-06-04T23:52:26;7.13;;;5.35;;
12869;SDS011;6503;48.572;13.460;2023-06-04T23:54:56;6.40;;;5.78;;
12869;SDS011;6503;48.572;13.460;2023-06-04T23:59:57;8.27;;;5.50;;
